Time;durP1;ratioP1;P1;durP2;ratioP2;P2;SDS_P1;SDS_P2;PMS_P1;PMS_P2;Temp;Humidity;BMP_temperature;BMP_pressure;BME280_temperature;BME280_humidity;BME280_pressure;Samples;Min_cycle;Max_cycle;Signal;HPM_P1;HPM_P2
2023/09/25 00:02:20;;;;;;;0.20;0.20;;;;;;;;;;5073904;28;23118;-85
2023/09/25 00:04:45;;;;;;;0.20;0.20;;;;;;;;;;5073466;28;20317;-82
2023/09/25 00:07:10;;;;;;;0.20;0.20;;;;;;;;;;5046839;28;20040;-85
2023/09/25 00:09:35;;;;;;;0.20;0.20;;;;;;;;;;5066994;28;20036;-85
2023/09/25 00:12:00;;;;;;;0.30;0.30;;;;;;;;;;5048315;28;20081;-86
2023/09/25 00:14:26;;;;;;;0.30;0.30;;;;;;;;;;5050230;28;20334;-85
2023/09/25 00:16:51;;;;;;;0.20;0.20;;;;;;;;;;5053455;28;20033;-83
2023/09/25 00:19:16;;;;;;;0.20;0.20;;;;;;;;;;5057049;28;20471;-84
2023/09/25 00:21:41;;;;;;;0.20;0.20;;;;;;;;;;5051914;28;20047;-84
2023/09/25 00:24:06;;;;;;;0.30;0.30;;;;;;;;;;5053083;28;20375;-83
2023/09/25 00:26:32;;;;;;;0.20;0.20;;;;;;;;;;5071859;28;20041;-83
2023/09/25 00:28:57;;;;;;;0.30;0.30;;;;;;;;;;5046521;28;20033;-83
2023/09/25 00:31:22;;;;;;;0.30;0.30;;;;;;;;;;5053698;28;20287;-83
2023/09/25 00:33:47;;;;;;;0.30;0.30;;;;;;;;;;5065011;28;20137;-83
2023/09/25 00:36:12;;;;;;;0.20;0.20;;;;;;;;;;5064428;28;20494;-84
2023/09/25 00:38:37;;;;;;;0.30;0.30;;;;;;;;;;5053756;28;20041;-84
2023/09/25 00:41:03;;;;;;;0.20;0.20;;;;;;;;;;5046650;28;20777;-83
2023/09/25 00:43:28;;;;;;;0.10;0.10;;;;;;;;;;5052147;28;20408;-83
2023/09/25 00:45:53;;;;;;;0.20;0.20;;;;;;;10.71;nan;101139.19;5064526;28;20270;-83
2023/09/25 00:48:18;;;;;;;0.20;0.20;;;;;;;;;;5052652;28;20024;-83
2023/09/25 00:50:43;;;;;;;0.20;0.20;;;;;;;;;;5062082;28;20033;-82
2023/09/25 00:53:09;;;;;;;0.20;0.20;;;;;;;;;;5050188;28;20279;-83
2023/09/25 00:55:35;;;;;;;0.20;0.20;;;;;;;;;;5048272;28;20055;-83
2023/09/25 00:58:00;;;;;;;0.20;0.20;;;;;;;;;;5049553;28;20203;-83
2023/09/25 01:00:25;;;;;;;0.20;0.20;;;;;;;;;;5069501;28;20111;-84
2023/09/25 01:02:50;;;;;;;0.30;0.30;;;;;;;10.28;nan;101111.22;5068830;28;20116;-83
2023/09/25 01:05:16;;;;;;;0.30;0.30;;;;;;;;;;5068079;28;20028;-83
2023/09/25 01:07:41;;;;;;;0.20;0.20;;;;;;;;;;5069078;28;20313;-84
2023/09/25 01:10:15;;;;;;;0.20;0.20;;;;;;;10.16;nan;101197.72;5067867;28;20053;-85
2023/09/25 01:12:41;;;;;;;0.30;0.30;;;;;;;;;;5050194;28;20498;-84
2023/09/25 01:15:06;;;;;;;0.30;0.30;;;;;;;;;;5066304;28;20032;-84
2023/09/25 01:17:32;;;;;;;0.30;0.30;;;;;;;;;;5044770;28;20136;-84
2023/09/25 01:19:57;;;;;;;0.20;0.20;;;;;;;;;;5061062;28;20039;-83
2023/09/25 01:22:22;;;;;;;0.30;0.30;;;;;;;;;;5050095;28;20048;-83
2023/09/25 01:24:48;;;;;;;0.20;0.20;;;;;;;;;;5044102;28;20063;-83
2023/09/25 01:27:13;;;;;;;0.30;0.30;;;;;;;;;;5065211;28;20051;-83
2023/09/25 01:29:38;;;;;;;0.20;0.20;;;;;;;;;;5049476;28;20608;-87
2023/09/25 01:32:04;;;;;;;0.20;0.20;;;;;;;;;;5053278;28;20067;-84
2023/09/25 01:34:29;;;;;;;0.30;0.30;;;;;;;;;;5043681;28;20452;-86
2023/09/25 01:36:55;;;;;;;0.30;0.30;;;;;;;;;;5046893;28;20046;-86
2023/09/25 01:39:20;;;;;;;0.30;0.30;;;;;;;;;;5080998;28;20044;-86
2023/09/25 01:41:46;;;;;;;0.30;0.30;;;;;;;;;;5083128;28;20048;-87
2023/09/25 01:44:11;;;;;;;0.30;0.30;;;;;;;;;;5071838;28;20045;-88
2023/09/25 01:46:36;;;;;;;0.30;0.30;;;;;;;;;;5082200;28;20092;-87
2023/09/25 01:49:01;;;;;;;0.30;0.30;;;;;;;;;;5051051;28;20033;-83
2023/09/25 01:51:26;;;;;;;0.30;0.30;;;;;;;;;;5052399;28;20383;-82
2023/09/25 01:53:51;;;;;;;0.30;0.30;;;;;;;;;;5064982;28;20131;-83
2023/09/25 01:56:17;;;;;;;0.30;0.30;;;;;;;;;;5046380;28;20334;-85
2023/09/25 01:58:43;;;;;;;0.30;0.30;;;;;;;;;;5051430;28;20533;-83
2023/09/25 02:01:08;;;;;;;0.30;0.30;;;;;;;;;;5070838;28;20068;-85
2023/09/25 02:03:33;;;;;;;0.30;0.30;;;;;;;;;;5048608;28;20071;-85
2023/09/25 02:05:58;;;;;;;0.30;0.30;;;;;;;;;;5052548;28;20293;-85
2023/09/25 02:08:24;;;;;;;0.20;0.20;;;;;;;-145.28;100.00;87231.69;5038483;28;20134;-84
2023/09/25 02:10:49;;;;;;;0.30;0.30;;;;;;;;;;5059841;28;20318;-84
2023/09/25 02:13:14;;;;;;;0.30;0.30;;;;;;;;;;5070311;28;20040;-83
2023/09/25 02:15:40;;;;;;;0.30;0.30;;;;;;;;;;5050427;28;20119;-84
2023/09/25 02:18:05;;;;;;;0.30;0.30;;;;;;;;;;5052302;28;20307;-84
2023/09/25 02:20:30;;;;;;;0.30;0.30;;;;;;;;;;5065485;28;20078;-86
2023/09/25 02:22:55;;;;;;;0.30;0.30;;;;;;;;;;5074105;28;20127;-86
2023/09/25 02:25:20;;;;;;;0.30;0.30;;;;;;;;;;5056025;28;20033;-85
2023/09/25 02:27:46;;;;;;;0.30;0.30;;;;;;;;;;5049459;28;20349;-85
2023/09/25 02:30:11;;;;;;;0.30;0.30;;;;;;;;;;5053551;28;20290;-84
2023/09/25 02:32:37;;;;;;;0.30;0.30;;;;;;;;;;5065790;28;20113;-84
2023/09/25 02:35:02;;;;;;;0.20;0.20;;;;;;;;;;5046000;28;20041;-86
2023/09/25 02:37:29;;;;;;;0.30;0.30;;;;;;;;;;5054161;28;20040;-85
2023/09/25 02:39:54;;;;;;;0.30;0.30;;;;;;;;;;5050524;28;20036;-85
2023/09/25 02:42:19;;;;;;;0.30;0.30;;;;;;;;;;5069713;28;20043;-85
2023/09/25 02:44:44;;;;;;;0.30;0.30;;;;;;;;;;5072751;28;20058;-83
2023/09/25 02:47:09;;;;;;;0.30;0.30;;;;;;;;;;5069288;28;20032;-84
2023/09/25 02:49:35;;;;;;;0.30;0.30;;;;;;;9.02;nan;100938.16;5053716;28;20402;-85
2023/09/25 02:52:00;;;;;;;0.30;0.30;;;;;;;;;;5055151;28;20036;-84
2023/09/25 02:54:25;;;;;;;0.30;0.30;;;;;;;;;;5069756;28;20037;-86
2023/09/25 02:56:50;;;;;;;0.30;0.30;;;;;;;;;;5063985;28;20036;-85
2023/09/25 02:59:16;;;;;;;0.30;0.30;;;;;;;;;;5050288;28;20059;-84
2023/09/25 03:01:41;;;;;;;0.30;0.30;;;;;;;;;;5066617;28;20106;-85
2023/09/25 03:04:06;;;;;;;0.30;0.30;;;;;;;;;;5064605;28;20279;-84
2023/09/25 03:06:31;;;;;;;0.30;0.30;;;;;;;;;;5044040;28;20029;-86
2023/09/25 03:08:56;;;;;;;0.30;0.30;;;;;;;;;;5051827;28;20043;-85
2023/09/25 03:11:21;;;;;;;0.30;0.30;;;;;;;;;;5069106;28;20058;-84
2023/09/25 03:13:48;;;;;;;0.30;0.30;;;;;;;;;;5064780;28;20029;-86
2023/09/25 03:16:14;;;;;;;0.30;0.30;;;;;;;;;;5063067;28;20034;-86
2023/09/25 03:18:39;;;;;;;0.30;0.30;;;;;;;;;;5046778;28;20044;-85
2023/09/25 03:21:12;;;;;;;0.30;0.30;;;;;;;;;;5053983;28;20116;-85
2023/09/25 03:23:38;;;;;;;0.30;0.30;;;;;;;;;;5070217;28;20025;-85
2023/09/25 03:26:03;;;;;;;0.30;0.30;;;;;;;;;;5048450;28;20037;-84
2023/09/25 03:28:28;;;;;;;0.30;0.30;;;;;;;;;;5052123;28;20037;-85
2023/09/25 03:30:53;;;;;;;0.30;0.30;;;;;;;;;;5067942;28;20288;-85
2023/09/25 03:33:21;;;;;;;0.30;0.30;;;;;;;;;;5071454;28;20075;-85
2023/09/25 03:35:46;;;;;;;0.30;0.30;;;;;;;;;;5066254;28;20116;-85
2023/09/25 03:38:11;;;;;;;0.30;0.30;;;;;;;;;;5045446;28;20155;-85
2023/09/25 03:40:36;;;;;;;0.30;0.30;;;;;;;;;;5045774;28;20113;-86
2023/09/25 03:43:01;;;;;;;0.30;0.30;;;;;;;;;;5047243;28;20413;-83
2023/09/25 03:45:28;;;;;;;0.30;0.30;;;;;;;;;;5039542;28;20040;-85
2023/09/25 03:47:53;;;;;;;0.30;0.30;;;;;;;;;;5053627;28;20054;-83
2023/09/25 03:50:18;;;;;;;0.30;0.30;;;;;;;;;;5046940;28;20036;-85
2023/09/25 03:52:43;;;;;;;0.30;0.30;;;;;;;22.46;100.00;-11236.72;5066388;28;20032;-86
2023/09/25 03:55:09;;;;;;;0.30;0.30;;;;;;;;;;5053091;28;20344;-85
2023/09/25 03:57:34;;;;;;;0.30;0.30;;;;;;;;;;5071256;28;20116;-84
2023/09/25 03:59:59;;;;;;;0.30;0.30;;;;;;;22.54;100.00;65960.16;5047633;28;20317;-84
2023/09/25 04:02:24;;;;;;;0.30;0.30;;;;;;;;;;5073594;28;20052;-86
2023/09/25 04:04:50;;;;;;;0.30;0.30;;;;;;;;;;5053515;28;20082;-85
2023/09/25 04:07:15;;;;;;;0.30;0.30;;;;;;;;;;5051713;28;20051;-85
2023/09/25 04:09:40;;;;;;;0.30;0.30;;;;;;;;;;5053171;28;20327;-86
2023/09/25 04:12:05;;;;;;;0.30;0.30;;;;;;;;;;5069407;28;20041;-85
2023/09/25 04:14:35;;;;;;;0.30;0.30;;;;;;;;;;5053604;28;20047;-85
2023/09/25 04:17:01;;;;;;;0.30;0.30;;;;;;;;;;5072868;28;20517;-85
2023/09/25 04:19:26;;;;;;;0.30;0.30;;;;;;;;;;5071454;28;20416;-85
2023/09/25 04:21:52;;;;;;;0.30;0.30;;;;;;;;;;5057199;28;20498;-85
2023/09/25 04:24:17;;;;;;;0.30;0.30;;;;;;;;;;5054735;28;20792;-85
2023/09/25 04:26:43;;;;;;;0.30;0.30;;;;;;;;;;5064595;28;20029;-83
2023/09/25 04:29:17;;;;;;;0.30;0.30;;;;;;;;;;5053299;28;20422;-85
2023/09/25 04:31:46;;;;;;;0.20;0.20;;;;;;;8.47;nan;101211.66;5046349;28;20480;-84
2023/09/25 04:34:11;;;;;;;0.30;0.30;;;;;;;8.59;nan;101217.75;5047153;28;20029;-84
2023/09/25 04:36:37;;;;;;;0.25;0.25;;;;;;;8.58;nan;101218.69;5049614;28;20078;-85
2023/09/25 04:39:02;;;;;;;0.30;0.30;;;;;;;8.54;nan;101223.41;5071485;28;20066;-83
2023/09/25 04:41:28;;;;;;;0.30;0.30;;;;;;;8.52;nan;101220.03;5056969;28;20482;-84
2023/09/25 04:43:53;;;;;;;;;;;;;;;8.52;nan;101229.75;5047609;28;20033;-83
2023/09/25 04:46:18;;;;;;;0.30;0.30;;;;;;;8.43;nan;101228.66;5072735;28;20366;-85
2023/09/25 04:48:43;;;;;;;0.30;0.30;;;;;;;8.36;nan;101222.16;5047569;28;20029;-84
2023/09/25 04:51:09;;;;;;;0.30;0.30;;;;;;;8.36;nan;101224.81;5049987;28;20703;-85
2023/09/25 04:53:34;;;;;;;0.30;0.30;;;;;;;8.41;nan;101235.84;5052676;28;20043;-82
2023/09/25 04:55:59;;;;;;;0.30;0.30;;;;;;;8.32;nan;101226.84;5048474;28;20036;-84
2023/09/25 04:58:25;;;;;;;0.30;0.30;;;;;;;8.30;nan;101232.25;5052545;28;20071;-85
2023/09/25 05:00:50;;;;;;;0.30;0.30;;;;;;;8.33;nan;101240.88;5050406;28;20039;-83
2023/09/25 05:03:16;;;;;;;0.30;0.30;;;;;;;8.32;nan;101240.03;5049159;28;20053;-84
2023/09/25 05:05:41;;;;;;;0.30;0.30;;;;;;;8.29;nan;101234.97;5053687;28;20032;-84
2023/09/25 05:08:07;;;;;;;0.30;0.30;;;;;;;8.29;nan;101245.50;5065446;28;20041;-86
2023/09/25 05:10:32;;;;;;;0.30;0.30;;;;;;;8.26;nan;101236.06;5045756;28;20408;-82
2023/09/25 05:12:57;;;;;;;0.30;0.30;;;;;;;8.23;nan;101238.09;5049655;28;20058;-85
2023/09/25 05:15:24;;;;;;;0.30;0.30;;;;;;;8.20;nan;101243.59;5072209;28;20064;-85
2023/09/25 05:17:49;;;;;;;0.30;0.30;;;;;;;8.12;nan;101238.09;5055314;28;20505;-85
2023/09/25 05:20:18;;;;;;;0.30;0.30;;;;;;;8.11;nan;101241.69;5070454;28;20041;-84
2023/09/25 05:22:48;;;;;;;0.30;0.30;;;;;;;8.08;nan;101240.13;5069903;28;20050;-83
2023/09/25 05:25:15;;;;;;;0.30;0.30;;;;;;;8.08;nan;101237.50;5073650;28;20040;-84
2023/09/25 05:27:43;;;;;;;0.30;0.30;;;;;;;8.09;nan;101247.91;5068713;28;20076;-84
2023/09/25 05:30:10;;;;;;;0.30;0.30;;;;;;;8.11;nan;101249.59;5054214;28;20067;-84
2023/09/25 05:32:36;;;;;;;0.30;0.30;;;;;;;8.09;nan;101245.28;5055153;28;20037;-85
2023/09/25 05:35:02;;;;;;;0.30;0.30;;;;;;;8.06;nan;101249.94;5066310;28;20037;-84
2023/09/25 05:37:27;;;;;;;0.30;0.30;;;;;;;8.04;nan;101246.59;5046704;28;20619;-85
2023/09/25 05:39:52;;;;;;;0.30;0.30;;;;;;;8.05;nan;101248.25;5053891;28;20040;-84
2023/09/25 05:42:18;;;;;;;0.30;0.30;;;;;;;8.04;nan;101244.78;5048650;28;20036;-85
2023/09/25 05:44:43;;;;;;;0.30;0.30;;;;;;;8.00;nan;101245.97;5055008;28;20382;-84
2023/09/25 05:47:08;;;;;;;0.30;0.30;;;;;;;8.01;nan;101250.31;5053903;28;20402;-83
2023/09/25 05:49:34;;;;;;;0.30;0.30;;;;;;;8.05;nan;101249.09;5045759;28;20397;-85
2023/09/25 05:51:59;;;;;;;0.30;0.30;;;;;;;8.16;nan;101248.28;5052677;28;20033;-85
2023/09/25 05:54:24;;;;;;;0.30;0.30;;;;;;;8.47;nan;101252.03;5069781;28;20043;-84
2023/09/25 05:56:50;;;;;;;0.30;0.30;;;;;;;8.93;nan;101255.44;5046919;28;20110;-85
2023/09/25 05:59:15;;;;;;;0.30;0.30;;;;;;;9.46;nan;101252.03;5049838;28;20056;-85
2023/09/25 06:01:42;;;;;;;0.30;0.30;;;;;;;9.96;nan;101254.88;5062424;28;20032;-84
2023/09/25 06:04:07;;;;;;;0.22;0.22;;;;;;;10.55;nan;101256.06;5066158;28;20495;-85
2023/09/25 06:06:33;;;;;;;0.25;0.25;;;;;;;11.03;nan;101264.09;5068911;28;20048;-85
2023/09/25 06:08:59;;;;;;;0.20;0.20;;;;;;;11.50;nan;101270.59;5063015;28;20025;-85
2023/09/25 06:11:24;;;;;;;0.20;0.20;;;;;;;11.84;nan;101263.84;5055694;28;20025;-85
2023/09/25 06:13:49;;;;;;;0.17;0.17;;;;;;;12.29;nan;101265.03;5043105;28;20025;-84
2023/09/25 06:16:16;;;;;;;0.20;0.20;;;;;;;12.79;nan;101269.97;5067767;28;20055;-85
2023/09/25 06:18:41;;;;;;;0.20;0.20;;;;;;;13.30;nan;101265.06;5064223;28;20056;-85
2023/09/25 06:21:08;;;;;;;0.20;0.20;;;;;;;13.73;nan;101272.28;5059048;28;20068;-85
2023/09/25 06:23:33;;;;;;;0.20;0.20;;;;;;;14.05;nan;101276.16;5049552;28;20143;-86
2023/09/25 06:25:59;;;;;;;0.10;0.10;;;;;;;14.20;nan;101277.22;5064051;28;20570;-86
2023/09/25 06:28:26;;;;;;;0.10;0.10;;;;;;;13.98;nan;101275.94;5044290;28;20132;-85
2023/09/25 06:30:52;;;;;;;0.10;0.10;;;;;;;14.22;nan;101293.03;5050511;28;20119;-85
2023/09/25 06:33:17;;;;;;;0.10;0.10;;;;;;;14.48;nan;101287.72;5043891;28;20593;-86
2023/09/25 06:35:42;;;;;;;0.10;0.10;;;;;;;14.68;nan;101292.81;5046037;28;20123;-86
2023/09/25 06:38:08;;;;;;;0.10;0.10;;;;;;;14.63;nan;101288.81;5043443;28;20037;-86
2023/09/25 06:40:34;;;;;;;0.10;0.10;;;;;;;14.50;nan;101285.72;5044985;28;20033;-86
2023/09/25 06:42:59;;;;;;;0.10;0.10;;;;;;;14.60;nan;101291.78;5055304;28;20400;-85
2023/09/25 06:45:24;;;;;;;0.10;0.10;;;;;;;14.67;nan;101283.19;5049577;28;20041;-86
2023/09/25 06:47:50;;;;;;;0.10;0.10;;;;;;;14.88;nan;101288.91;5047024;28;20055;-86
2023/09/25 06:50:16;;;;;;;0.10;0.10;;;;;;;15.08;nan;101287.63;5067376;28;20036;-86
2023/09/25 06:52:42;;;;;;;0.10;0.10;;;;;;;15.06;nan;101286.13;5067498;28;20040;-87
2023/09/25 06:55:07;;;;;;;0.10;0.10;;;;;;;14.83;nan;101283.25;5059251;28;20413;-87
2023/09/25 06:57:33;;;;;;;0.10;0.10;;;;;;;14.61;nan;101290.81;5067968;28;20106;-84
2023/09/25 06:59:59;;;;;;;0.10;0.10;;;;;;;14.30;nan;101289.59;5043794;28;20128;-84
2023/09/25 07:02:25;;;;;;;0.10;0.10;;;;;;;13.98;nan;101291.06;5049578;28;20090;-84
2023/09/25 07:04:50;;;;;;;0.10;0.10;;;;;;;13.85;nan;101277.31;5063260;28;20033;-85
2023/09/25 07:07:16;;;;;;;0.10;0.10;;;;;;;13.73;nan;101282.91;5046569;28;20044;-84
2023/09/25 07:09:41;;;;;;;0.10;0.10;;;;;;;13.57;nan;101288.91;5060340;28;20036;-84
2023/09/25 07:12:06;;;;;;;0.20;0.20;;;;;;;13.53;nan;101290.19;5069121;28;20033;-87
2023/09/25 07:14:32;;;;;;;0.10;0.10;;;;;;;13.60;nan;101285.09;5047188;28;20064;-86
2023/09/25 07:16:57;;;;;;;0.17;0.17;;;;;;;13.85;nan;101286.16;5047063;28;20036;-86
2023/09/25 07:19:22;;;;;;;0.10;0.10;;;;;;;14.20;nan;101290.53;5050029;28;20044;-87
2023/09/25 07:21:47;;;;;;;0.10;0.10;;;;;;;14.43;nan;101284.69;5038855;28;20653;-85
2023/09/25 07:24:13;;;;;;;0.10;0.10;;;;;;;14.66;nan;101287.66;5053607;28;20029;-86
2023/09/25 07:26:38;;;;;;;0.10;0.10;;;;;;;15.28;nan;101284.69;5041958;28;20454;-86
2023/09/25 07:29:04;;;;;;;0.10;0.10;;;;;;;15.56;nan;101285.19;5039841;28;20512;-87
2023/09/25 07:31:29;;;;;;;0.10;0.10;;;;;;;16.13;nan;101279.03;5043765;28;20036;-87
2023/09/25 07:33:55;;;;;;;0.10;0.10;;;;;;;16.66;nan;101285.56;5059040;28;20040;-87
2023/09/25 07:36:21;;;;;;;0.10;0.10;;;;;;;17.16;nan;101294.19;5044414;28;20040;-87
2023/09/25 07:38:47;;;;;;;;;;;;;;;17.51;nan;101284.75;5066893;28;20032;-88
2023/09/25 07:41:12;;;;;;;0.10;0.10;;;;;;;17.88;nan;101288.50;5051689;28;19927;-87
2023/09/25 07:43:38;;;;;;;0.10;0.10;;;;;;;18.10;nan;101285.97;5067697;28;20037;-88
2023/09/25 07:46:04;;;;;;;0.10;0.10;;;;;;;18.42;nan;101290.97;5065940;28;20035;-86
2023/09/25 07:48:30;;;;;;;0.10;0.10;;;;;;;18.83;nan;101287.81;5063209;28;20036;-85
2023/09/25 07:50:58;;;;;;;0.10;0.10;;;;;;;19.22;nan;101289.28;5066977;28;20032;-85
2023/09/25 07:53:24;;;;;;;0.10;0.10;;;;;;;19.56;nan;101293.13;5065826;28;20032;-85
2023/09/25 07:55:53;;;;;;;0.10;0.10;;;;;;;19.97;nan;101288.97;5043050;28;20036;-85
2023/09/25 07:58:19;;;;;;;0.10;0.10;;;;;;;20.29;nan;101288.34;5049407;28;20197;-87
2023/09/25 08:00:46;;;;;;;0.10;0.10;;;;;;;20.65;nan;101291.91;5067600;28;20048;-85
2023/09/25 08:03:17;;;;;;;0.00;0.00;;;;;;;21.12;nan;101298.28;5069350;28;20059;-85
2023/09/25 08:05:43;;;;;;;0.00;0.00;;;;;;;21.75;nan;101306.06;5047042;28;20055;-85
2023/09/25 08:08:11;;;;;;;0.00;0.00;;;;;;;22.24;nan;101299.44;5065071;28;20053;-86
2023/09/25 08:10:41;;;;;;;0.00;0.00;;;;;;;22.64;nan;101302.84;5065346;28;20036;-84
2023/09/25 08:13:07;;;;;;;0.00;0.00;;;;;;;23.16;nan;101302.84;5079528;28;19917;-85
2023/09/25 08:15:33;;;;;;;;;;;;;;;23.49;nan;101307.22;5086400;28;20033;-85
2023/09/25 08:17:58;;;;;;;;;;;;;;;23.98;nan;101313.72;5094545;28;19966;-85
2023/09/25 08:20:26;;;;;;;;;;;;;;;24.51;nan;101309.69;5081309;28;19951;-85
2023/09/25 08:22:51;;;;;;;;;;;;;;;24.81;nan;101307.00;5068924;28;19964;-85
2023/09/25 08:25:17;;;;;;;;;;;;;;;25.12;nan;101310.56;5046697;28;19955;-86
2023/09/25 08:27:43;;;;;;;;;;;;;;;25.51;nan;101303.78;5071079;28;19916;-86
2023/09/25 08:30:09;;;;;;;;;;;;;;;26.02;nan;101310.47;5065842;28;19975;-86
2023/09/25 08:32:34;;;;;;;;;;;;;;;26.48;nan;101308.78;5049394;28;19979;-86
2023/09/25 08:34:59;;;;;;;;;;;;;;;26.90;nan;101307.75;5051325;28;19923;-86
2023/09/25 08:37:25;;;;;;;;;;;;;;;27.38;nan;101302.97;5051366;28;20313;-86
2023/09/25 08:39:51;;;;;;;;;;;;;;;27.50;nan;101304.53;5063640;28;20370;-87
2023/09/25 08:42:17;;;;;;;;;;;;;;;27.35;nan;101306.19;5046289;28;19913;-86
2023/09/25 08:44:43;;;;;;;;;;;;;;;26.98;nan;101301.09;5048912;28;20942;-87
2023/09/25 08:47:09;;;;;;;;;;;;;;;27.62;nan;101292.75;5067528;28;20058;-86
2023/09/25 08:49:35;;;;;;;;;;;;;;;27.84;nan;101295.59;5065681;28;19925;-87
2023/09/25 08:52:00;;;;;;;;;;;;;;;27.88;nan;101292.13;5065791;28;19961;-87
2023/09/25 08:54:25;;;;;;;;;;;;;;;28.64;nan;101293.47;5044442;28;20348;-87
2023/09/25 08:56:50;;;;;;;;;;;;;;;28.87;nan;101292.38;5048702;28;19924;-87
2023/09/25 08:59:16;;;;;;;;;;;;;;;28.42;nan;101274.38;5064760;28;19950;-87
2023/09/25 09:01:42;;;;;;;;;;;;;;;28.58;nan;101287.97;5062578;28;19974;-86
2023/09/25 09:04:07;;;;;;;;;;;;;;;28.68;nan;101286.44;5043262;28;19951;-87
2023/09/25 09:06:32;;;;;;;;;;;;;;;29.12;nan;101278.22;5060633;28;19924;-86
2023/09/25 09:08:58;;;;;;;;;;;;;;;29.72;nan;101285.28;5062052;28;20478;-85
2023/09/25 09:11:23;;;;;;;;;;;;;;;30.20;nan;101285.31;5061821;28;19928;-86
2023/09/25 09:13:48;;;;;;;;;;;;;;;30.72;nan;101281.72;5043968;28;20297;-86
2023/09/25 09:16:14;;;;;;;;;;;;;;;31.16;nan;101281.31;5042833;28;19913;-87
2023/09/25 09:18:40;;;;;;;;;;;;;;;31.43;nan;101277.53;5049417;28;19928;-86
2023/09/25 09:21:07;;;;;;;;;;;;;;;31.44;nan;101279.16;5065462;28;19920;-86
2023/09/25 09:23:42;;;;;;;;;;;;;;;31.66;nan;101274.25;5067412;28;19923;-86
2023/09/25 09:26:09;;;;;;;;;;;;;;;31.93;nan;101271.19;5053766;28;19916;-86
2023/09/25 09:28:34;;;;;;;;;;;;;;;32.27;nan;101272.47;5059200;28;19916;-86
2023/09/25 09:31:00;;;;;;;;;;;;;;;32.83;nan;101268.69;5068344;28;20361;-86
2023/09/25 09:33:29;;;;;;;;;;;;;;;33.00;nan;101271.84;5061984;28;19916;-85
2023/09/25 09:35:55;;;;;;;;;;;;;;;33.26;nan;101258.00;5053168;28;19917;-85
2023/09/25 09:38:21;;;;;;;;;;;;;;;33.50;nan;101260.81;5062943;28;19920;-87
2023/09/25 09:40:46;;;;;;;;;;;;;;;33.75;nan;101265.25;5044389;28;20305;-86
2023/09/25 09:43:12;;;;;;;;;;;;;;;33.65;nan;101257.94;5041558;28;19921;-86
2023/09/25 09:45:38;;;;;;;;;;;;;;;33.46;nan;101255.06;5061830;28;19989;-85
2023/09/25 09:48:06;;;;;;;;;;;;;;;33.81;nan;101251.19;5052896;28;19912;-85
2023/09/25 09:50:33;;;;;;;;;;;;;;;33.67;nan;101254.91;5062826;28;20397;-86
2023/09/25 09:52:59;;;;;;;;;;;;;;;33.80;nan;101251.47;5049705;28;19920;-85
2023/09/25 09:55:27;;;;;;;;;;;;;;;34.14;nan;101253.34;5048558;28;19916;-85
2023/09/25 09:57:54;;;;;;;;;;;;;;;34.25;nan;101250.19;5048303;28;20422;-85
2023/09/25 10:00:19;;;;;;;;;;;;;;;34.58;nan;101250.25;5055105;28;20378;-85
2023/09/25 10:02:45;;;;;;;;;;;;;;;34.81;nan;101240.34;5061338;28;19916;-85
2023/09/25 10:05:11;;;;;;;;;;;;;;;35.09;nan;101245.97;5060540;28;19916;-85
2023/09/25 10:07:55;;;;;;;;;;;;;;;35.22;nan;101242.47;5066804;28;20445;-86
2023/09/25 10:10:21;;;;;;;;;;;;;;;35.42;nan;101245.97;5062826;28;19955;-85
2023/09/25 10:12:50;;;;;;;;;;;;;;;35.72;nan;101244.66;5067602;28;19916;-87
2023/09/25 10:15:22;;;;;;;;;;;;;;;35.96;nan;101246.41;5057742;28;19920;-87
2023/09/25 10:17:48;;;;;;;;;;;;;;;36.03;nan;101239.34;5051116;28;19941;-87
2023/09/25 10:20:33;;;;;;;;;;;;;;;36.39;nan;101233.13;5068913;28;19925;-87
2023/09/25 10:23:04;;;;;;;;;;;;;;;36.62;nan;101228.50;5039100;28;19974;-85
2023/09/25 10:25:44;;;;;;;;;;;;;;;36.60;nan;101229.94;5062178;28;19917;-87
2023/09/25 10:28:29;;;;;;;;;;;;;;;36.23;nan;101226.31;5036759;28;21348;-86
2023/09/25 10:30:58;;;;;;;;;;;;;;;36.05;nan;101225.28;5045131;28;19917;-86
2023/09/25 10:33:28;;;;;;;;;;;;;;;36.09;nan;101226.31;5050963;28;20015;-86
2023/09/25 10:35:57;;;;;;;;;;;;;;;36.00;nan;101226.22;5048384;28;19927;-87
2023/09/25 10:38:26;;;;;;;;;;;;;;;36.24;nan;101222.44;5042743;28;19921;-87
2023/09/25 10:40:54;;;;;;;;;;;;;;;36.48;nan;101224.94;5047157;28;20267;-86
2023/09/25 10:43:20;;;;;;;;;;;;;;;36.61;nan;101217.78;5069044;28;19916;-86
2023/09/25 10:45:46;;;;;;;;;;;;;;;36.38;nan;101226.00;5051264;28;19924;-86
2023/09/25 10:48:11;;;;;;;;;;;;;;;36.60;nan;101227.19;5050837;28;20554;-87
2023/09/25 10:50:37;;;;;;;;;;;;;;;37.02;nan;101222.31;5058111;28;19962;-87
2023/09/25 10:53:03;;;;;;;;;;;;;;;37.37;nan;101223.38;5054422;28;20568;-87
2023/09/25 10:55:28;;;;;;;;;;;;;;;37.55;nan;101221.56;5065047;28;19960;-87
2023/09/25 10:57:53;;;;;;;;;;;;;;;37.60;nan;101219.47;5060823;28;20011;-86
2023/09/25 11:00:19;;;;;;;;;;;;;;;37.75;nan;101217.41;5062424;28;19923;-87
2023/09/25 11:02:45;;;;;;;;;;;;;;;38.04;nan;101214.13;5063232;28;19991;-87
2023/09/25 11:05:10;;;;;;;;;;;;;;;37.99;nan;101209.53;5067341;28;20362;-87
2023/09/25 11:07:36;;;;;;;;;;;;;;;37.97;nan;101203.53;5066444;28;19928;-87
2023/09/25 11:10:02;;;;;;;;;;;;;;;38.24;nan;101207.19;5049506;28;19920;-89
2023/09/25 11:12:28;;;;;;;;;;;;;;;38.40;nan;101207.50;5051003;28;20288;-87
2023/09/25 11:14:54;;;;;;;;;;;;;;;37.91;nan;101201.22;5047617;28;20007;-88
2023/09/25 11:17:20;;;;;;;;;;;;;;;37.68;nan;101201.31;5056706;28;19917;-87
2023/09/25 11:19:45;;;;;;;;;;;;;;;37.81;nan;101194.06;5070737;28;19935;-86
2023/09/25 11:22:11;;;;;;;;;;;;;;;37.49;nan;101198.75;5066163;28;19939;-87
2023/09/25 11:24:36;;;;;;;;;;;;;;;37.28;nan;101204.03;5057773;28;20362;-87
2023/09/25 11:27:06;;;;;;;;;;;;;;;37.37;nan;101196.59;5071044;28;19928;-86
2023/09/25 11:29:32;;;;;;;;;;;;;;;37.48;nan;101204.63;5052987;28;19920;-87
2023/09/25 11:31:57;;;;;;;;;;;;;;;36.28;nan;101204.16;5067765;28;19917;-87
2023/09/25 11:34:22;;;;;;;;;;;;;;;35.61;nan;101194.53;5062212;28;19916;-86
2023/09/25 11:36:48;;;;;;;;;;;;;;;35.15;nan;101189.81;5048558;28;19916;-88
2023/09/25 11:39:14;;;;;;;;;;;;;;;34.12;nan;101189.69;5054141;28;20370;-87
2023/09/25 11:41:40;;;;;;;;;;;;;;;33.28;nan;101192.75;5055513;28;19924;-87
2023/09/25 11:44:06;;;;;;;;;;;;;;;32.49;nan;101189.97;5068981;28;19957;-90
2023/09/25 11:46:33;;;;;;;;;;;;;;;31.84;nan;101188.06;5040385;28;20008;-88
2023/09/25 11:48:59;;;;;;;;;;;;;;;31.20;nan;101194.16;5048943;28;19923;-87
2023/09/25 11:51:24;;;;;;;;;;;;;;;30.75;nan;101193.00;5048532;28;20389;-87
2023/09/25 11:53:49;;;;;;;;;;;;;;;30.32;nan;101190.47;5043384;28;19923;-87
2023/09/25 11:56:15;;;;;;;;;;;;;;;29.79;nan;101176.00;5069710;28;20398;-87
2023/09/25 11:58:40;;;;;;;;;;;;;;;29.41;nan;101184.22;5065901;28;19921;-87
2023/09/25 12:01:05;;;;;;;;;;;;;;;28.63;nan;101175.63;5069392;28;19958;-86
2023/09/25 12:03:38;;;;;;;;;;;;;;;28.03;nan;101173.78;5047157;28;20360;-87
2023/09/25 12:06:03;;;;;;;;;;;;;;;27.37;nan;101179.09;5053890;28;20373;-86
2023/09/25 12:08:28;;;;;;;;;;;;;;;27.23;nan;101175.91;5075770;28;19924;-86
2023/09/25 12:10:55;;;;;;;;;;;;;;;27.21;nan;101178.84;5057151;28;20366;-86
2023/09/25 12:13:20;;;;;;;;;;;;;;;26.98;nan;101171.66;5072199;28;20011;-87
2023/09/25 12:15:46;;;;;;;;;;;;;;;26.68;nan;101166.53;5074891;28;19947;-86
2023/09/25 12:18:11;;;;;;;;;;;;;;;26.42;nan;101168.72;5066352;28;20012;-86
2023/09/25 12:20:37;;;;;;;;;;;;;;;26.28;nan;101167.34;5069295;28;19920;-87
2023/09/25 12:23:02;;;;;;;;;;;;;;;25.91;nan;101177.69;5073247;28;20006;-86
2023/09/25 12:25:29;;;;;;;;;;;;;;;25.72;nan;101171.53;5069510;28;19923;-86
2023/09/25 12:27:54;;;;;;;;;;;;;;;25.56;nan;101170.38;5051184;28;19922;-86
2023/09/25 12:30:19;;;;;;;;;;;;;;;25.53;nan;101168.13;5042660;28;20008;-85
2023/09/25 12:32:48;;;;;;;;;;;;;;;25.32;nan;101173.09;5045716;28;20011;-86
2023/09/25 12:35:18;;;;;;;;;;;;;;;25.04;nan;101179.13;5068368;28;19965;-86
2023/09/25 12:37:44;;;;;;;;;;;;;;;24.82;nan;101167.19;5039177;28;19917;-86
2023/09/25 12:40:10;;;;;;;;;;;;;;;24.57;nan;101162.75;5061139;28;19912;-86
2023/09/25 12:42:35;;;;;;;;;;;;;;;24.43;nan;101167.50;5040583;28;20394;-86
2023/09/25 12:45:00;;;;;;;;;;;;;;;24.47;nan;101167.88;5054552;28;19917;-86
2023/09/25 12:47:26;;;;;;;;;;;;;;;24.50;nan;101167.41;5069216;28;19916;-86
2023/09/25 12:49:52;;;;;;;;;;;;;;;24.32;nan;101150.16;5073393;28;19920;-87
2023/09/25 12:52:17;;;;;;;;;;;;;;;24.22;nan;101151.72;5048060;28;20371;-86
2023/09/25 12:54:43;;;;;;;;;;;;;;;24.08;nan;101145.69;5064640;28;19958;-86
2023/09/25 12:57:08;;;;;;;;;;;;;;;24.03;nan;101145.53;5044832;28;19913;-86